sensor_id;sensor_type;location;lat;lon;timestamp;P1;durP1;ratioP1;P2;durP2;ratioP2
70558;SDS011;58108;48.094;11.838;2023-02-14T00:01:44;38.25;;;11.07;;
70558;SDS011;58108;48.094;11.838;2023-02-14T00:04:10;32.90;;;10.30;;
70558;SDS011;58108;48.094;11.838;2023-02-14T00:06:35;39.45;;;10.77;;
70558;SDS011;58108;48.094;11.838;2023-02-14T00:09:03;48.95;;;12.32;;
70558;SDS011;58108;48.094;11.838;2023-02-14T00:11:28;37.13;;;11.23;;
70558;SDS011;58108;48.094;11.838;2023-02-14T00:13:54;41.23;;;10.47;;
70558;SDS011;58108;48.094;11.838;2023-02-14T00:16:38;32.08;;;9.30;;
70558;SDS011;58108;48.094;11.838;2023-02-14T00:19:03;43.30;;;10.77;;
70558;SDS011;58108;48.094;11.838;2023-02-14T00:21:32;39.53;;;12.10;;
70558;SDS011;58108;48.094;11.838;2023-02-14T00:24:00;37.88;;;10.70;;
70558;SDS011;58108;48.094;11.838;2023-02-14T00:26:25;38.17;;;11.10;;
70558;SDS011;58108;48.094;11.838;2023-02-14T00:28:50;39.10;;;11.07;;
70558;SDS011;58108;48.094;11.838;2023-02-14T00:31:15;35.37;;;10.93;;
70558;SDS011;58108;48.094;11.838;2023-02-14T00:33:43;41.87;;;11.60;;
70558;SDS011;58108;48.094;11.838;2023-02-14T00:36:08;35.87;;;11.17;;
70558;SDS011;58108;48.094;11.838;2023-02-14T00:38:34;43.50;;;10.95;;
70558;SDS011;58108;48.094;11.838;2023-02-14T00:41:00;48.77;;;12.07;;
70558;SDS011;58108;48.094;11.838;2023-02-14T00:43:26;43.25;;;11.48;;
70558;SDS011;58108;48.094;11.838;2023-02-14T00:45:51;29.00;;;9.33;;
70558;SDS011;58108;48.094;11.838;2023-02-14T00:48:16;32.23;;;9.93;;
70558;SDS011;58108;48.094;11.838;2023-02-14T00:50:41;35.30;;;10.43;;
70558;SDS011;58108;48.094;11.838;2023-02-14T00:53:07;43.37;;;10.63;;
70558;SDS011;58108;48.094;11.838;2023-02-14T00:55:32;39.17;;;10.93;;
70558;SDS011;58108;48.094;11.838;2023-02-14T00:57:57;40.33;;;10.67;;
70558;SDS011;58108;48.094;11.838;2023-02-14T01:00:22;31.47;;;10.37;;
70558;SDS011;58108;48.094;11.838;2023-02-14T01:02:48;39.10;;;10.23;;
70558;SDS011;58108;48.094;11.838;2023-02-14T01:05:13;36.33;;;9.63;;
70558;SDS011;58108;48.094;11.838;2023-02-14T01:07:38;28.77;;;7.47;;
70558;SDS011;58108;48.094;11.838;2023-02-14T01:10:03;19.33;;;6.27;;
70558;SDS011;58108;48.094;11.838;2023-02-14T01:12:29;67.07;;;10.13;;
70558;SDS011;58108;48.094;11.838;2023-02-14T01:14:54;28.93;;;9.47;;
70558;SDS011;58108;48.094;11.838;2023-02-14T01:17:19;33.67;;;10.10;;
70558;SDS011;58108;48.094;11.838;2023-02-14T01:19:44;34.90;;;10.03;;
70558;SDS011;58108;48.094;11.838;2023-02-14T01:22:10;34.85;;;9.93;;
70558;SDS011;58108;48.094;11.838;2023-02-14T01:24:35;36.42;;;10.75;;
70558;SDS011;58108;48.094;11.838;2023-02-14T01:27:00;38.65;;;11.60;;
70558;SDS011;58108;48.094;11.838;2023-02-14T01:29:26;61.53;;;11.43;;
70558;SDS011;58108;48.094;11.838;2023-02-14T01:31:51;51.93;;;11.07;;
70558;SDS011;58108;48.094;11.838;2023-02-14T01:34:16;41.33;;;11.47;;
70558;SDS011;58108;48.094;11.838;2023-02-14T01:36:41;40.17;;;11.70;;
70558;SDS011;58108;48.094;11.838;2023-02-14T01:39:09;39.57;;;11.53;;
70558;SDS011;58108;48.094;11.838;2023-02-14T01:41:35;42.23;;;11.83;;
70558;SDS011;58108;48.094;11.838;2023-02-14T01:44:02;29.00;;;9.27;;
70558;SDS011;58108;48.094;11.838;2023-02-14T01:46:28;41.47;;;11.55;;
70558;SDS011;58108;48.094;11.838;2023-02-14T01:48:54;41.38;;;11.65;;
70558;SDS011;58108;48.094;11.838;2023-02-14T01:51:20;43.72;;;11.85;;
70558;SDS011;58108;48.094;11.838;2023-02-14T01:53:46;38.47;;;11.97;;
70558;SDS011;58108;48.094;11.838;2023-02-14T01:56:12;40.33;;;10.97;;
70558;SDS011;58108;48.094;11.838;2023-02-14T01:58:39;34.85;;;10.80;;
70558;SDS011;58108;48.094;11.838;2023-02-14T02:01:08;35.63;;;10.57;;
70558;SDS011;58108;48.094;11.838;2023-02-14T02:03:36;38.90;;;11.03;;
70558;SDS011;58108;48.094;11.838;2023-02-14T02:06:48;42.30;;;11.40;;
70558;SDS011;58108;48.094;11.838;2023-02-14T02:11:19;34.95;;;10.63;;
70558;SDS011;58108;48.094;11.838;2023-02-14T02:13:44;26.43;;;6.83;;
70558;SDS011;58108;48.094;11.838;2023-02-14T02:16:13;28.43;;;8.43;;
70558;SDS011;58108;48.094;11.838;2023-02-14T02:19:34;46.10;;;11.98;;
70558;SDS011;58108;48.094;11.838;2023-02-14T02:24:16;48.88;;;11.82;;
70558;SDS011;58108;48.094;11.838;2023-02-14T02:29:30;36.70;;;10.37;;
70558;SDS011;58108;48.094;11.838;2023-02-14T02:32:05;36.83;;;10.50;;
70558;SDS011;58108;48.094;11.838;2023-02-14T02:37:24;37.45;;;9.60;;
70558;SDS011;58108;48.094;11.838;2023-02-14T02:42:35;19.10;;;6.63;;
70558;SDS011;58108;48.094;11.838;2023-02-14T02:47:56;39.17;;;10.82;;
70558;SDS011;58108;48.094;11.838;2023-02-14T02:50:29;34.92;;;8.60;;
70558;SDS011;58108;48.094;11.838;2023-02-14T02:53:26;36.75;;;10.52;;
70558;SDS011;58108;48.094;11.838;2023-02-14T02:59:01;31.02;;;8.90;;
70558;SDS011;58108;48.094;11.838;2023-02-14T03:01:30;31.00;;;8.95;;
70558;SDS011;58108;48.094;11.838;2023-02-14T03:03:58;36.78;;;10.98;;
70558;SDS011;58108;48.094;11.838;2023-02-14T03:06:43;24.52;;;7.68;;
70558;SDS011;58108;48.094;11.838;2023-02-14T03:11:37;46.10;;;11.43;;
70558;SDS011;58108;48.094;11.838;2023-02-14T03:14:19;29.80;;;9.55;;
70558;SDS011;58108;48.094;11.838;2023-02-14T03:16:54;32.28;;;8.80;;
70558;SDS011;58108;48.094;11.838;2023-02-14T03:19:30;40.27;;;11.13;;
70558;SDS011;58108;48.094;11.838;2023-02-14T03:29:48;39.55;;;11.30;;
70558;SDS011;58108;48.094;11.838;2023-02-14T03:32:26;40.55;;;11.10;;
70558;SDS011;58108;48.094;11.838;2023-02-14T03:34:59;40.00;;;10.80;;
70558;SDS011;58108;48.094;11.838;2023-02-14T03:37:27;38.83;;;10.02;;
70558;SDS011;58108;48.094;11.838;2023-02-14T03:42:29;45.25;;;11.23;;
70558;SDS011;58108;48.094;11.838;2023-02-14T03:44:55;36.13;;;11.15;;
70558;SDS011;58108;48.094;11.838;2023-02-14T03:47:23;30.50;;;9.07;;
70558;SDS011;58108;48.094;11.838;2023-02-14T03:50:03;33.13;;;9.90;;
70558;SDS011;58108;48.094;11.838;2023-02-14T03:52:30;39.58;;;10.77;;
70558;SDS011;58108;48.094;11.838;2023-02-14T03:54:56;38.47;;;11.40;;
70558;SDS011;58108;48.094;11.838;2023-02-14T03:57:27;35.47;;;10.87;;
70558;SDS011;58108;48.094;11.838;2023-02-14T03:59:52;37.40;;;11.38;;
70558;SDS011;58108;48.094;11.838;2023-02-14T04:02:20;40.83;;;10.95;;
70558;SDS011;58108;48.094;11.838;2023-02-14T04:04:48;25.83;;;8.05;;
70558;SDS011;58108;48.094;11.838;2023-02-14T04:07:15;22.13;;;5.70;;
70558;SDS011;58108;48.094;11.838;2023-02-14T04:09:41;36.97;;;8.98;;
70558;SDS011;58108;48.094;11.838;2023-02-14T04:12:07;31.57;;;9.23;;
70558;SDS011;58108;48.094;11.838;2023-02-14T04:14:32;31.45;;;8.60;;
70558;SDS011;58108;48.094;11.838;2023-02-14T04:16:58;35.50;;;9.17;;
70558;SDS011;58108;48.094;11.838;2023-02-14T04:19:41;36.63;;;9.83;;
70558;SDS011;58108;48.094;11.838;2023-02-14T04:22:07;21.03;;;6.27;;
70558;SDS011;58108;48.094;11.838;2023-02-14T04:24:32;32.85;;;8.23;;
70558;SDS011;58108;48.094;11.838;2023-02-14T04:26:57;23.00;;;6.60;;
70558;SDS011;58108;48.094;11.838;2023-02-14T04:29:38;16.85;;;5.85;;
70558;SDS011;58108;48.094;11.838;2023-02-14T04:32:05;26.60;;;8.55;;
70558;SDS011;58108;48.094;11.838;2023-02-14T04:34:30;23.67;;;6.30;;
70558;SDS011;58108;48.094;11.838;2023-02-14T04:36:55;33.03;;;9.30;;
70558;SDS011;58108;48.094;11.838;2023-02-14T04:39:20;21.43;;;6.87;;
70558;SDS011;58108;48.094;11.838;2023-02-14T04:41:45;38.53;;;7.73;;
70558;SDS011;58108;48.094;11.838;2023-02-14T04:44:11;45.07;;;10.50;;
70558;SDS011;58108;48.094;11.838;2023-02-14T04:46:36;42.67;;;9.43;;
70558;SDS011;58108;48.094;11.838;2023-02-14T04:49:01;17.40;;;5.10;;
70558;SDS011;58108;48.094;11.838;2023-02-14T04:51:26;19.97;;;6.53;;
70558;SDS011;58108;48.094;11.838;2023-02-14T04:53:51;35.10;;;9.20;;
70558;SDS011;58108;48.094;11.838;2023-02-14T04:56:17;26.53;;;5.73;;
70558;SDS011;58108;48.094;11.838;2023-02-14T04:58:42;37.85;;;9.20;;
70558;SDS011;58108;48.094;11.838;2023-02-14T05:01:07;36.93;;;10.30;;
70558;SDS011;58108;48.094;11.838;2023-02-14T05:03:32;18.83;;;5.22;;
70558;SDS011;58108;48.094;11.838;2023-02-14T05:05:57;39.37;;;9.77;;
70558;SDS011;58108;48.094;11.838;2023-02-14T05:08:23;16.27;;;5.33;;
70558;SDS011;58108;48.094;11.838;2023-02-14T05:10:48;39.47;;;7.97;;
70558;SDS011;58108;48.094;11.838;2023-02-14T05:13:13;23.33;;;6.70;;
70558;SDS011;58108;48.094;11.838;2023-02-14T05:15:38;32.40;;;8.57;;
70558;SDS011;58108;48.094;11.838;2023-02-14T05:18:03;36.37;;;9.40;;
70558;SDS011;58108;48.094;11.838;2023-02-14T05:20:29;23.35;;;7.45;;
70558;SDS011;58108;48.094;11.838;2023-02-14T05:22:55;37.80;;;10.47;;
70558;SDS011;58108;48.094;11.838;2023-02-14T05:25:20;24.10;;;6.80;;
70558;SDS011;58108;48.094;11.838;2023-02-14T05:27:45;30.23;;;8.40;;
70558;SDS011;58108;48.094;11.838;2023-02-14T05:30:11;16.85;;;5.72;;
70558;SDS011;58108;48.094;11.838;2023-02-14T05:32:36;40.00;;;10.10;;
70558;SDS011;58108;48.094;11.838;2023-02-14T05:35:02;41.47;;;10.30;;
70558;SDS011;58108;48.094;11.838;2023-02-14T05:37:27;41.63;;;9.47;;
70558;SDS011;58108;48.094;11.838;2023-02-14T05:39:52;41.73;;;10.00;;
70558;SDS011;58108;48.094;11.838;2023-02-14T05:42:17;36.37;;;10.27;;
70558;SDS011;58108;48.094;11.838;2023-02-14T05:44:42;35.63;;;10.80;;
70558;SDS011;58108;48.094;11.838;2023-02-14T05:47:08;29.40;;;5.30;;
70558;SDS011;58108;48.094;11.838;2023-02-14T05:49:33;37.03;;;10.20;;
70558;SDS011;58108;48.094;11.838;2023-02-14T05:51:58;31.57;;;8.30;;
70558;SDS011;58108;48.094;11.838;2023-02-14T05:54:24;35.10;;;10.07;;
70558;SDS011;58108;48.094;11.838;2023-02-14T05:56:49;34.13;;;10.20;;
70558;SDS011;58108;48.094;11.838;2023-02-14T05:59:14;36.17;;;9.57;;
70558;SDS011;58108;48.094;11.838;2023-02-14T06:01:39;39.77;;;11.00;;
70558;SDS011;58108;48.094;11.838;2023-02-14T06:04:05;40.83;;;10.73;;
70558;SDS011;58108;48.094;11.838;2023-02-14T06:06:30;33.53;;;9.63;;
70558;SDS011;58108;48.094;11.838;2023-02-14T06:08:55;43.40;;;10.27;;
70558;SDS011;58108;48.094;11.838;2023-02-14T06:11:20;38.60;;;10.83;;
70558;SDS011;58108;48.094;11.838;2023-02-14T06:13:45;39.03;;;11.23;;
70558;SDS011;58108;48.094;11.838;2023-02-14T06:16:10;38.37;;;10.87;;
70558;SDS011;58108;48.094;11.838;2023-02-14T06:18:36;38.77;;;11.23;;
70558;SDS011;58108;48.094;11.838;2023-02-14T06:21:01;39.57;;;9.70;;
70558;SDS011;58108;48.094;11.838;2023-02-14T06:23:26;47.00;;;12.03;;
70558;SDS011;58108;48.094;11.838;2023-02-14T06:25:51;41.97;;;11.67;;
70558;SDS011;58108;48.094;11.838;2023-02-14T06:28:17;38.77;;;10.60;;
70558;SDS011;58108;48.094;11.838;2023-02-14T06:30:42;41.93;;;10.40;;
70558;SDS011;58108;48.094;11.838;2023-02-14T06:33:07;41.93;;;11.57;;
70558;SDS011;58108;48.094;11.838;2023-02-14T06:35:32;25.13;;;7.10;;
70558;SDS011;58108;48.094;11.838;2023-02-14T06:37:57;16.00;;;5.10;;
70558;SDS011;58108;48.094;11.838;2023-02-14T06:40:22;45.00;;;10.70;;
70558;SDS011;58108;48.094;11.838;2023-02-14T06:42:48;34.93;;;9.70;;
70558;SDS011;58108;48.094;11.838;2023-02-14T06:45:13;41.53;;;9.93;;
70558;SDS011;58108;48.094;11.838;2023-02-14T06:47:38;37.73;;;9.87;;
70558;SDS011;58108;48.094;11.838;2023-02-14T06:50:04;38.63;;;9.60;;
70558;SDS011;58108;48.094;11.838;2023-02-14T06:52:30;41.67;;;9.85;;
70558;SDS011;58108;48.094;11.838;2023-02-14T06:54:55;22.05;;;6.63;;
70558;SDS011;58108;48.094;11.838;2023-02-14T06:57:21;40.13;;;9.43;;
70558;SDS011;58108;48.094;11.838;2023-02-14T06:59:46;27.17;;;8.17;;
70558;SDS011;58108;48.094;11.838;2023-02-14T07:02:11;39.20;;;9.43;;
70558;SDS011;58108;48.094;11.838;2023-02-14T07:04:36;45.00;;;10.77;;
70558;SDS011;58108;48.094;11.838;2023-02-14T07:07:02;42.77;;;11.07;;
70558;SDS011;58108;48.094;11.838;2023-02-14T07:09:27;37.80;;;11.07;;
70558;SDS011;58108;48.094;11.838;2023-02-14T07:11:52;45.30;;;11.37;;
70558;SDS011;58108;48.094;11.838;2023-02-14T07:14:17;36.53;;;10.73;;
70558;SDS011;58108;48.094;11.838;2023-02-14T07:16:42;39.23;;;9.60;;
70558;SDS011;58108;48.094;11.838;2023-02-14T07:19:08;37.07;;;9.70;;
70558;SDS011;58108;48.094;11.838;2023-02-14T07:21:33;32.70;;;10.33;;
70558;SDS011;58108;48.094;11.838;2023-02-14T07:23:58;20.77;;;6.30;;
70558;SDS011;58108;48.094;11.838;2023-02-14T07:26:23;27.23;;;7.53;;
70558;SDS011;58108;48.094;11.838;2023-02-14T07:28:48;32.88;;;9.13;;
70558;SDS011;58108;48.094;11.838;2023-02-14T07:31:14;29.23;;;8.83;;
70558;SDS011;58108;48.094;11.838;2023-02-14T07:33:40;36.80;;;10.00;;
70558;SDS011;58108;48.094;11.838;2023-02-14T07:36:06;33.97;;;9.40;;
70558;SDS011;58108;48.094;11.838;2023-02-14T07:38:31;36.17;;;9.98;;
70558;SDS011;58108;48.094;11.838;2023-02-14T07:40:56;33.87;;;9.33;;
70558;SDS011;58108;48.094;11.838;2023-02-14T07:43:21;42.60;;;10.10;;
70558;SDS011;58108;48.094;11.838;2023-02-14T07:45:46;45.23;;;11.23;;
70558;SDS011;58108;48.094;11.838;2023-02-14T07:48:12;35.35;;;9.07;;
70558;SDS011;58108;48.094;11.838;2023-02-14T07:50:37;36.30;;;10.37;;
70558;SDS011;58108;48.094;11.838;2023-02-14T07:53:03;22.30;;;7.63;;
70558;SDS011;58108;48.094;11.838;2023-02-14T07:55:28;29.13;;;8.80;;
70558;SDS011;58108;48.094;11.838;2023-02-14T07:57:53;39.13;;;9.00;;
70558;SDS011;58108;48.094;11.838;2023-02-14T08:00:18;33.67;;;9.10;;
70558;SDS011;58108;48.094;11.838;2023-02-14T08:02:44;35.47;;;9.45;;
70558;SDS011;58108;48.094;11.838;2023-02-14T08:05:09;32.77;;;8.50;;
70558;SDS011;58108;48.094;11.838;2023-02-14T08:07:34;30.90;;;9.17;;
70558;SDS011;58108;48.094;11.838;2023-02-14T08:10:00;28.97;;;7.40;;
70558;SDS011;58108;48.094;11.838;2023-02-14T08:12:25;23.27;;;6.73;;
70558;SDS011;58108;48.094;11.838;2023-02-14T08:15:09;33.20;;;8.80;;
70558;SDS011;58108;48.094;11.838;2023-02-14T08:17:55;19.85;;;5.43;;
70558;SDS011;58108;48.094;11.838;2023-02-14T08:20:20;26.43;;;7.47;;
70558;SDS011;58108;48.094;11.838;2023-02-14T08:22:45;27.27;;;9.00;;
70558;SDS011;58108;48.094;11.838;2023-02-14T08:25:10;30.67;;;8.40;;
70558;SDS011;58108;48.094;11.838;2023-02-14T08:27:35;30.70;;;9.97;;
70558;SDS011;58108;48.094;11.838;2023-02-14T08:30:01;37.20;;;9.87;;
70558;SDS011;58108;48.094;11.838;2023-02-14T08:32:26;30.40;;;9.97;;
70558;SDS011;58108;48.094;11.838;2023-02-14T08:34:51;32.13;;;10.50;;
70558;SDS011;58108;48.094;11.838;2023-02-14T08:37:16;31.90;;;9.30;;
70558;SDS011;58108;48.094;11.838;2023-02-14T08:39:41;28.93;;;8.73;;
70558;SDS011;58108;48.094;11.838;2023-02-14T08:42:07;27.37;;;8.67;;
70558;SDS011;58108;48.094;11.838;2023-02-14T08:44:32;30.70;;;9.17;;
70558;SDS011;58108;48.094;11.838;2023-02-14T08:46:57;27.63;;;8.50;;
70558;SDS011;58108;48.094;11.838;2023-02-14T08:49:22;24.17;;;8.50;;
70558;SDS011;58108;48.094;11.838;2023-02-14T08:51:48;26.43;;;9.57;;
70558;SDS011;58108;48.094;11.838;2023-02-14T08:54:13;20.17;;;7.40;;
70558;SDS011;58108;48.094;11.838;2023-02-14T08:56:51;20.92;;;6.53;;
70558;SDS011;58108;48.094;11.838;2023-02-14T08:59:16;23.77;;;7.67;;
70558;SDS011;58108;48.094;11.838;2023-02-14T09:01:41;21.10;;;7.50;;
70558;SDS011;58108;48.094;11.838;2023-02-14T09:04:06;23.30;;;8.17;;
70558;SDS011;58108;48.094;11.838;2023-02-14T09:06:31;19.23;;;6.50;;
70558;SDS011;58108;48.094;11.838;2023-02-14T09:08:57;22.30;;;7.63;;
70558;SDS011;58108;48.094;11.838;2023-02-14T09:11:23;22.53;;;7.10;;
70558;SDS011;58108;48.094;11.838;2023-02-14T09:13:49;10.88;;;4.13;;
70558;SDS011;58108;48.094;11.838;2023-02-14T09:16:16;18.38;;;5.78;;
70558;SDS011;58108;48.094;11.838;2023-02-14T09:18:42;17.73;;;5.57;;
70558;SDS011;58108;48.094;11.838;2023-02-14T09:21:08;23.15;;;7.57;;
70558;SDS011;58108;48.094;11.838;2023-02-14T09:23:34;22.33;;;7.60;;
70558;SDS011;58108;48.094;11.838;2023-02-14T09:26:00;25.23;;;7.60;;
70558;SDS011;58108;48.094;11.838;2023-02-14T09:28:26;20.02;;;7.00;;
70558;SDS011;58108;48.094;11.838;2023-02-14T09:30:51;23.20;;;7.28;;
70558;SDS011;58108;48.094;11.838;2023-02-14T09:33:17;19.87;;;7.03;;
70558;SDS011;58108;48.094;11.838;2023-02-14T09:35:42;26.30;;;7.90;;
70558;SDS011;58108;48.094;11.838;2023-02-14T09:38:09;21.70;;;7.07;;
70558;SDS011;58108;48.094;11.838;2023-02-14T09:40:34;18.93;;;6.63;;
70558;SDS011;58108;48.094;11.838;2023-02-14T09:43:02;23.83;;;7.23;;
70558;SDS011;58108;48.094;11.838;2023-02-14T09:45:29;18.60;;;6.47;;
70558;SDS011;58108;48.094;11.838;2023-02-14T09:48:07;19.63;;;7.25;;
70558;SDS011;58108;48.094;11.838;2023-02-14T09:50:45;20.73;;;7.47;;
70558;SDS011;58108;48.094;11.838;2023-02-14T09:55:42;21.30;;;7.20;;
70558;SDS011;58108;48.094;11.838;2023-02-14T10:00:37;19.23;;;7.43;;
70558;SDS011;58108;48.094;11.838;2023-02-14T10:05:35;22.08;;;7.35;;
70558;SDS011;58108;48.094;11.838;2023-02-14T10:10:43;18.37;;;7.80;;
70558;SDS011;58108;48.094;11.838;2023-02-14T10:13:12;20.08;;;7.38;;
70558;SDS011;58108;48.094;11.838;2023-02-14T10:15:41;22.20;;;7.88;;
70558;SDS011;58108;48.094;11.838;2023-02-14T10:18:11;23.50;;;8.30;;
70558;SDS011;58108;48.094;11.838;2023-02-14T10:20:40;24.48;;;7.43;;
70558;SDS011;58108;48.094;11.838;2023-02-14T10:23:21;21.43;;;7.97;;
70558;SDS011;58108;48.094;11.838;2023-02-14T10:28:35;20.75;;;7.55;;
70558;SDS011;58108;48.094;11.838;2023-02-14T10:33:27;24.17;;;7.72;;
70558;SDS011;58108;48.094;11.838;2023-02-14T10:36:02;26.50;;;10.73;;
70558;SDS011;58108;48.094;11.838;2023-02-14T10:46:10;19.40;;;7.67;;
70558;SDS011;58108;48.094;11.838;2023-02-14T10:56:19;21.33;;;7.30;;
70558;SDS011;58108;48.094;11.838;2023-02-14T10:58:45;22.67;;;7.90;;
70558;SDS011;58108;48.094;11.838;2023-02-14T11:01:13;19.23;;;7.63;;
70558;SDS011;58108;48.094;11.838;2023-02-14T11:03:40;20.10;;;7.70;;
70558;SDS011;58108;48.094;11.838;2023-02-14T11:06:09;20.57;;;7.53;;
70558;SDS011;58108;48.094;11.838;2023-02-14T11:08:38;23.05;;;7.60;;
70558;SDS011;58108;48.094;11.838;2023-02-14T11:14:17;19.85;;;7.32;;
70558;SDS011;58108;48.094;11.838;2023-02-14T11:16:42;20.90;;;8.02;;
70558;SDS011;58108;48.094;11.838;2023-02-14T11:21:37;19.53;;;7.77;;
70558;SDS011;58108;48.094;11.838;2023-02-14T11:24:02;19.45;;;7.75;;
70558;SDS011;58108;48.094;11.838;2023-02-14T11:26:40;20.15;;;7.65;;
70558;SDS011;58108;48.094;11.838;2023-02-14T11:29:09;21.52;;;7.72;;
70558;SDS011;58108;48.094;11.838;2023-02-14T11:31:37;21.88;;;7.38;;
70558;SDS011;58108;48.094;11.838;2023-02-14T11:34:04;21.83;;;8.13;;
70558;SDS011;58108;48.094;11.838;2023-02-14T11:36:30;16.17;;;6.63;;
70558;SDS011;58108;48.094;11.838;2023-02-14T11:39:01;20.92;;;7.00;;
70558;SDS011;58108;48.094;11.838;2023-02-14T11:41:27;15.23;;;7.00;;
70558;SDS011;58108;48.094;11.838;2023-02-14T11:44:20;17.75;;;8.00;;
70558;SDS011;58108;48.094;11.838;2023-02-14T11:46:51;14.13;;;6.57;;
70558;SDS011;58108;48.094;11.838;2023-02-14T11:49:27;15.38;;;6.53;;
70558;SDS011;58108;48.094;11.838;2023-02-14T11:51:53;15.23;;;6.85;;
70558;SDS011;58108;48.094;11.838;2023-02-14T11:54:24;14.80;;;7.13;;
70558;SDS011;58108;48.094;11.838;2023-02-14T11:56:53;13.57;;;7.15;;
70558;SDS011;58108;48.094;11.838;2023-02-14T12:01:50;12.80;;;6.55;;
70558;SDS011;58108;48.094;11.838;2023-02-14T12:04:18;14.57;;;7.00;;
70558;SDS011;58108;48.094;11.838;2023-02-14T12:06:43;14.07;;;7.35;;
70558;SDS011;58108;48.094;11.838;2023-02-14T12:14:19;13.67;;;7.63;;
70558;SDS011;58108;48.094;11.838;2023-02-14T12:16:46;13.50;;;7.05;;
70558;SDS011;58108;48.094;11.838;2023-02-14T12:19:16;14.38;;;7.40;;
70558;SDS011;58108;48.094;11.838;2023-02-14T12:21:47;14.38;;;7.43;;
70558;SDS011;58108;48.094;11.838;2023-02-14T12:24:17;14.85;;;8.23;;
70558;SDS011;58108;48.094;11.838;2023-02-14T12:26:45;12.33;;;6.90;;
70558;SDS011;58108;48.094;11.838;2023-02-14T12:29:15;14.48;;;7.53;;
70558;SDS011;58108;48.094;11.838;2023-02-14T12:31:41;12.52;;;7.40;;
70558;SDS011;58108;48.094;11.838;2023-02-14T12:34:08;14.45;;;7.32;;
70558;SDS011;58108;48.094;11.838;2023-02-14T12:36:39;12.43;;;7.28;;
70558;SDS011;58108;48.094;11.838;2023-02-14T12:44:06;13.18;;;7.40;;
70558;SDS011;58108;48.094;11.838;2023-02-14T12:59:27;13.13;;;7.28;;
70558;SDS011;58108;48.094;11.838;2023-02-14T13:02:04;15.38;;;9.27;;
70558;SDS011;58108;48.094;11.838;2023-02-14T13:10:04;14.98;;;7.70;;
70558;SDS011;58108;48.094;11.838;2023-02-14T13:12:37;17.35;;;7.63;;
70558;SDS011;58108;48.094;11.838;2023-02-14T13:15:23;14.43;;;7.47;;
70558;SDS011;58108;48.094;11.838;2023-02-14T13:17:53;14.07;;;7.60;;
70558;SDS011;58108;48.094;11.838;2023-02-14T13:23:10;15.25;;;8.18;;
70558;SDS011;58108;48.094;11.838;2023-02-14T13:25:41;15.82;;;8.40;;
70558;SDS011;58108;48.094;11.838;2023-02-14T13:28:11;15.07;;;8.40;;
70558;SDS011;58108;48.094;11.838;2023-02-14T13:30:36;16.42;;;8.70;;
70558;SDS011;58108;48.094;11.838;2023-02-14T13:33:06;16.60;;;8.73;;
70558;SDS011;58108;48.094;11.838;2023-02-14T13:35:32;15.90;;;8.55;;
70558;SDS011;58108;48.094;11.838;2023-02-14T13:38:02;16.13;;;7.80;;
70558;SDS011;58108;48.094;11.838;2023-02-14T13:40:28;15.98;;;8.93;;
70558;SDS011;58108;48.094;11.838;2023-02-14T13:42:56;18.90;;;9.90;;
70558;SDS011;58108;48.094;11.838;2023-02-14T13:50:26;16.92;;;9.63;;
70558;SDS011;58108;48.094;11.838;2023-02-14T13:52:52;17.40;;;9.07;;
70558;SDS011;58108;48.094;11.838;2023-02-14T13:55:29;15.82;;;7.93;;
70558;SDS011;58108;48.094;11.838;2023-02-14T13:58:05;17.67;;;8.57;;
70558;SDS011;58108;48.094;11.838;2023-02-14T14:00:41;16.08;;;7.88;;
70558;SDS011;58108;48.094;11.838;2023-02-14T14:03:11;17.20;;;8.68;;
70558;SDS011;58108;48.094;11.838;2023-02-14T14:18:41;16.38;;;8.02;;
70558;SDS011;58108;48.094;11.838;2023-02-14T14:31:40;15.63;;;7.30;;
70558;SDS011;58108;48.094;11.838;2023-02-14T14:34:05;15.90;;;7.70;;
70558;SDS011;58108;48.094;11.838;2023-02-14T14:36:31;17.63;;;8.82;;
70558;SDS011;58108;48.094;11.838;2023-02-14T14:38:57;15.93;;;7.30;;
70558;SDS011;58108;48.094;11.838;2023-02-14T14:41:25;17.60;;;8.10;;
70558;SDS011;58108;48.094;11.838;2023-02-14T14:43:52;16.73;;;8.10;;
70558;SDS011;58108;48.094;11.838;2023-02-14T14:46:17;17.87;;;8.17;;
70558;SDS011;58108;48.094;11.838;2023-02-14T14:48:46;18.77;;;8.27;;
70558;SDS011;58108;48.094;11.838;2023-02-14T14:56:38;16.03;;;7.40;;
70558;SDS011;58108;48.094;11.838;2023-02-14T14:59:15;18.95;;;8.15;;
70558;SDS011;58108;48.094;11.838;2023-02-14T15:01:41;19.52;;;8.60;;
70558;SDS011;58108;48.094;11.838;2023-02-14T15:06:33;25.13;;;10.90;;
70558;SDS011;58108;48.094;11.838;2023-02-14T15:09:09;24.85;;;11.45;;
70558;SDS011;58108;48.094;11.838;2023-02-14T15:11:34;21.95;;;9.52;;
70558;SDS011;58108;48.094;11.838;2023-02-14T15:14:19;20.33;;;9.25;;
70558;SDS011;58108;48.094;11.838;2023-02-14T15:17:45;23.55;;;10.18;;
70558;SDS011;58108;48.094;11.838;2023-02-14T15:19:43;20.60;;;8.73;;
70558;SDS011;58108;48.094;11.838;2023-02-14T15:22:55;23.13;;;9.02;;
70558;SDS011;58108;48.094;11.838;2023-02-14T15:24:56;20.27;;;8.68;;
70558;SDS011;58108;48.094;11.838;2023-02-14T15:27:23;18.75;;;7.78;;
70558;SDS011;58108;48.094;11.838;2023-02-14T15:29:57;22.50;;;9.00;;
70558;SDS011;58108;48.094;11.838;2023-02-14T15:32:23;19.52;;;8.90;;
70558;SDS011;58108;48.094;11.838;2023-02-14T15:34:49;22.05;;;9.50;;
70558;SDS011;58108;48.094;11.838;2023-02-14T15:37:15;20.20;;;8.80;;
70558;SDS011;58108;48.094;11.838;2023-02-14T15:39:42;22.70;;;9.30;;
70558;SDS011;58108;48.094;11.838;2023-02-14T15:45:15;21.13;;;8.60;;
70558;SDS011;58108;48.094;11.838;2023-02-14T15:47:41;24.60;;;9.45;;
70558;SDS011;58108;48.094;11.838;2023-02-14T15:50:15;24.37;;;9.20;;
70558;SDS011;58108;48.094;11.838;2023-02-14T15:52:41;22.25;;;9.50;;
70558;SDS011;58108;48.094;11.838;2023-02-14T15:55:09;22.30;;;8.43;;
70558;SDS011;58108;48.094;11.838;2023-02-14T15:57:34;23.33;;;9.02;;
70558;SDS011;58108;48.094;11.838;2023-02-14T16:00:00;24.20;;;9.53;;
70558;SDS011;58108;48.094;11.838;2023-02-14T16:02:33;23.70;;;9.52;;
70558;SDS011;58108;48.094;11.838;2023-02-14T16:05:05;24.67;;;9.15;;
70558;SDS011;58108;48.094;11.838;2023-02-14T16:07:32;24.65;;;10.40;;
70558;SDS011;58108;48.094;11.838;2023-02-14T16:10:32;22.23;;;9.03;;
70558;SDS011;58108;48.094;11.838;2023-02-14T16:12:53;24.50;;;9.60;;
70558;SDS011;58108;48.094;11.838;2023-02-14T16:15:20;27.98;;;9.75;;
70558;SDS011;58108;48.094;11.838;2023-02-14T16:17:46;28.73;;;10.88;;
70558;SDS011;58108;48.094;11.838;2023-02-14T16:20:28;26.95;;;10.27;;
70558;SDS011;58108;48.094;11.838;2023-02-14T16:25:39;22.67;;;8.52;;
70558;SDS011;58108;48.094;11.838;2023-02-14T16:28:04;25.10;;;9.25;;
70558;SDS011;58108;48.094;11.838;2023-02-14T16:30:29;23.90;;;9.13;;
70558;SDS011;58108;48.094;11.838;2023-02-14T16:32:54;22.57;;;8.10;;
70558;SDS011;58108;48.094;11.838;2023-02-14T16:35:21;24.02;;;8.80;;
70558;SDS011;58108;48.094;11.838;2023-02-14T16:37:46;24.53;;;8.67;;
70558;SDS011;58108;48.094;11.838;2023-02-14T16:40:13;31.90;;;8.80;;
70558;SDS011;58108;48.094;11.838;2023-02-14T16:42:39;40.40;;;8.77;;
70558;SDS011;58108;48.094;11.838;2023-02-14T16:45:04;37.57;;;9.80;;
70558;SDS011;58108;48.094;11.838;2023-02-14T16:47:29;19.77;;;7.00;;